Time;durP1;ratioP1;P1;durP2;ratioP2;P2;SDS_P1;SDS_P2;PMS_P1;PMS_P2;Temp;Humidity;BMP_temperature;BMP_pressure;BME280_temperature;BME280_humidity;BME280_pressure;Samples;Min_cycle;Max_cycle;Signal;HPM_P1;HPM_P2
2022/03/05 00:01:07;;;;;;;4.47;2.62;;;;;;;;;;1712210;82;21115;-73
2022/03/05 00:03:34;;;;;;;3.90;2.17;;;;;;;;;;1712084;84;21196;-73
2022/03/05 00:06:01;;;;;;;4.53;2.25;;;;;;;;;;1711990;84;21084;-73
2022/03/05 00:08:28;;;;;;;3.58;2.35;;;;;;;;;;1712241;83;20950;-73
2022/03/05 00:10:55;;;;;;;4.25;2.42;;;;;;;;;;1712018;84;21067;-73
2022/03/05 00:13:22;;;;;;;4.70;2.65;;;;;;;;;;1712290;84;21016;-73
2022/03/05 00:15:49;;;;;;;5.15;2.30;;;;;;;;;;1712047;84;21052;-73
2022/03/05 00:18:17;;;;;;;5.92;3.00;;;;;;;;;;1712103;83;21102;-74
2022/03/05 00:20:45;;;;;;;4.72;2.70;;;;;;;;;;1711872;83;21165;-72
2022/03/05 00:23:11;;;;;;;4.35;2.75;;;;;;;;;;1712163;84;21048;-72
2022/03/05 00:25:38;;;;;;;4.47;2.55;;;;;;;;;;1711907;83;21099;-72
2022/03/05 00:28:05;;;;;;;4.62;2.35;;;;;;;;;;1717835;83;21484;-71
2022/03/05 00:30:32;;;;;;;3.33;2.25;;;;;;;;;;1719838;83;21040;-70
2022/03/05 00:32:59;;;;;;;3.45;2.12;;;;;;;;;;1719664;83;21060;-71
2022/03/05 00:35:25;;;;;;;3.67;2.45;;;;;;;;;;1719973;83;20973;-70
2022/03/05 00:37:52;;;;;;;3.72;2.40;;;;;;;;;;1719848;83;21016;-73
2022/03/05 00:40:20;;;;;;;3.65;2.27;;;;;;;;;;1719787;83;21024;-69
2022/03/05 00:42:46;;;;;;;4.10;2.58;;;;;;;;;;1719743;83;21067;-69
2022/03/05 00:45:13;;;;;;;4.33;2.67;;;;;;;;;;1720016;83;21004;-73
2022/03/05 00:47:40;;;;;;;3.80;2.33;;;;;;;;;;1719653;83;21040;-70
2022/03/05 00:50:07;;;;;;;5.83;2.50;;;;;;;;;;1720011;83;21141;-70
2022/03/05 00:52:34;;;;;;;5.62;2.90;;;;;;;;;;1720012;83;21028;-70
2022/03/05 00:55:01;;;;;;;4.00;2.40;;;;;;;;;;1719896;83;21048;-69
2022/03/05 00:57:27;;;;;;;4.40;2.40;;;;;;;;;;1719882;83;21036;-70
2022/03/05 00:59:54;;;;;;;4.40;2.42;;;;;;;;;;1719782;83;20997;-70
2022/03/05 01:02:21;;;;;;;3.40;2.02;;;;;;;;;;1719693;82;21087;-71
2022/03/05 01:04:48;;;;;;;4.33;2.40;;;;;;;;;;1719718;83;21563;-70
2022/03/05 01:07:14;;;;;;;3.47;2.40;;;;;;;;;;1719768;83;21060;-70
2022/03/05 01:09:42;;;;;;;2.85;2.02;;;;;;;;;;1719522;83;21308;-69
2022/03/05 01:12:08;;;;;;;2.87;1.85;;;;;;;;;;1719987;83;21507;-70
2022/03/05 01:14:37;;;;;;;4.33;2.40;;;;;;;;;;1719886;83;21056;-71
2022/03/05 01:17:04;;;;;;;2.90;2.08;;;;;;;;;;1719715;83;21091;-71
2022/03/05 01:19:31;;;;;;;3.33;2.20;;;;;;;;;;1719947;83;21000;-71
2022/03/05 01:21:58;;;;;;;2.95;2.30;;;;;;;;;;1720047;83;21066;-70
2022/03/05 01:24:25;;;;;;;5.42;2.47;;;;;;;;;;1719758;83;21107;-70
2022/03/05 01:26:51;;;;;;;3.90;2.52;;;;;;;;;;1718949;83;21020;-69
2022/03/05 01:29:17;;;;;;;4.75;2.60;;;;;;;;;;1712338;84;21572;-70
2022/03/05 01:31:45;;;;;;;5.10;2.50;;;;;;;;;;1712129;84;21048;-70
2022/03/05 01:34:11;;;;;;;3.25;2.40;;;;;;;;;;1712281;84;21056;-70
2022/03/05 01:36:37;;;;;;;4.90;2.42;;;;;;;;;;1712138;83;21517;-69
2022/03/05 01:39:05;;;;;;;4.55;2.60;;;;;;;;;;1712102;84;21111;-70
2022/03/05 01:41:31;;;;;;;4.17;2.62;;;;;;;;;;1712222;84;21007;-71
2022/03/05 01:43:58;;;;;;;2.98;2.20;;;;;;;;;;1712356;84;21036;-71
2022/03/05 01:46:36;;;;;;;3.40;2.25;;;;;;;;;;1712097;84;21037;-72
2022/03/05 01:49:06;;;;;;;3.33;2.25;;;;;;;;;;1712351;83;21040;-71
2022/03/05 01:51:33;;;;;;;4.40;2.50;;;;;;;;;;1712352;84;21488;-70
2022/03/05 01:53:59;;;;;;;3.60;2.58;;;;;;;;;;1712314;84;20993;-70
2022/03/05 01:56:26;;;;;;;4.22;2.65;;;;;;;;;;1712267;84;20974;-71
2022/03/05 01:58:53;;;;;;;3.30;2.37;;;;;;;;;;1712176;84;21016;-70
2022/03/05 02:04:08;;;;;;;3.02;2.05;;;;;;;;;;1751983;78;21111;-70
2022/03/05 02:06:36;;;;;;;2.98;2.12;;;;;;;;;;1744157;81;21031;-69
2022/03/05 02:09:03;;;;;;;3.20;2.30;;;;;;;;;;1733687;83;21054;-69
2022/03/05 02:11:29;;;;;;;4.92;2.35;;;;;;;;;;1733739;83;21115;-70
2022/03/05 02:13:56;;;;;;;3.90;2.35;;;;;;;;;;1733638;83;21074;-70
2022/03/05 02:16:23;;;;;;;3.33;2.00;;;;;;;;;;1733985;83;21542;-69
2022/03/05 02:18:52;;;;;;;4.10;2.50;;;;;;;;;;1733801;83;21068;-70
2022/03/05 02:21:19;;;;;;;3.27;2.17;;;;;;;;;;1733763;83;21611;-69
2022/03/05 02:23:46;;;;;;;6.33;2.67;;;;;;;;;;1733981;83;21036;-69
2022/03/05 02:26:12;;;;;;;2.92;2.20;;;;;;;;;;1734027;83;21028;-69
2022/03/05 02:28:39;;;;;;;4.92;2.65;;;;;;;;;;1734023;83;21110;-69
2022/03/05 02:31:06;;;;;;;4.33;2.40;;;;;;;;;;1734067;83;21031;-69
2022/03/05 02:33:32;;;;;;;4.55;3.02;;;;;;;;;;1733965;83;21540;-69
2022/03/05 02:35:58;;;;;;;3.75;2.30;;;;;;;;;;1733685;83;21066;-70
2022/03/05 02:38:27;;;;;;;2.90;2.20;;;;;;;;;;1733682;83;21015;-70
2022/03/05 02:40:54;;;;;;;3.62;2.50;;;;;;;;;;1733979;83;21071;-70
2022/03/05 02:43:21;;;;;;;3.15;2.17;;;;;;;;;;1733701;83;21095;-69
2022/03/05 02:45:48;;;;;;;3.33;2.37;;;;;;;;;;1733720;83;21570;-69
2022/03/05 02:48:16;;;;;;;3.17;2.08;;;;;;;;;;1733925;83;21044;-69
2022/03/05 02:50:43;;;;;;;2.25;1.80;;;;;;;;;;1733524;83;21071;-68
2022/03/05 02:53:09;;;;;;;3.05;2.00;;;;;;;;;;1733887;83;21030;-70
2022/03/05 02:55:36;;;;;;;2.62;1.85;;;;;;;;;;1733713;83;21534;-68
2022/03/05 02:58:03;;;;;;;3.50;2.12;;;;;;;;;;1733858;83;21558;-69
2022/03/05 03:00:30;;;;;;;3.83;2.40;;;;;;;;;;1733761;83;21055;-69
2022/03/05 03:02:56;;;;;;;2.65;2.00;;;;;;;;;;1733753;81;21511;-70
2022/03/05 03:05:23;;;;;;;3.67;2.05;;;;;;;;;;1733214;83;21044;-70
2022/03/05 03:07:50;;;;;;;2.85;2.00;;;;;;;;;;1733674;83;21008;-69
2022/03/05 03:10:16;;;;;;;2.83;2.10;;;;;;;;;;1733479;83;21574;-69
2022/03/05 03:12:43;;;;;;;4.35;2.08;;;;;;;;;;1733663;83;21075;-70
2022/03/05 03:15:11;;;;;;;2.42;1.75;;;;;;;;;;1733492;83;21031;-70
2022/03/05 03:17:48;;;;;;;2.83;2.20;;;;;;;;;;1733619;83;21059;-70
2022/03/05 03:20:17;;;;;;;5.17;2.42;;;;;;;;;;1733266;83;21626;-71
2022/03/05 03:22:45;;;;;;;3.17;1.98;;;;;;;;;;1732958;83;21059;-70
2022/03/05 03:25:11;;;;;;;3.35;2.00;;;;;;;;;;1733416;83;21083;-71
2022/03/05 03:27:39;;;;;;;3.83;2.47;;;;;;;;;;1733427;83;22105;-70
2022/03/05 03:30:06;;;;;;;3.22;2.17;;;;;;;;;;1733213;83;21099;-69
2022/03/05 03:32:32;;;;;;;4.37;2.62;;;;;;;;;;1733565;83;21028;-69
2022/03/05 03:34:59;;;;;;;4.15;2.30;;;;;;;;;;1733343;83;21036;-69
2022/03/05 03:37:28;;;;;;;2.85;2.08;;;;;;;;;;1733530;83;21036;-69
2022/03/05 03:39:53;;;;;;;3.62;2.27;;;;;;;;;;1733279;83;21016;-70
2022/03/05 03:42:20;;;;;;;3.95;2.40;;;;;;;;;;1733695;83;21072;-69
2022/03/05 03:44:47;;;;;;;3.62;2.30;;;;;;;;;;1733528;83;21098;-69
2022/03/05 03:47:13;;;;;;;2.70;2.00;;;;;;;;;;1733702;83;21547;-71
2022/03/05 03:49:41;;;;;;;3.22;2.02;;;;;;;;;;1733601;83;21629;-70
2022/03/05 03:52:07;;;;;;;4.03;2.40;;;;;;;;;;1733770;83;21196;-70
2022/03/05 03:54:33;;;;;;;2.50;1.90;;;;;;;;;;1733727;83;21563;-70
2022/03/05 03:57:00;;;;;;;3.90;2.47;;;;;;;;;;1733531;83;21020;-70
2022/03/05 03:59:26;;;;;;;2.90;2.20;;;;;;;;;;1733736;83;21294;-69
2022/03/05 04:01:53;;;;;;;3.62;2.22;;;;;;;;;;1733622;83;21571;-70
2022/03/05 04:04:20;;;;;;;2.58;2.15;;;;;;;;;;1733333;81;21566;-70
2022/03/05 04:09:31;;;;;;;4.60;2.20;;;;;;;;;;1733546;83;21044;-68
2022/03/05 04:11:58;;;;;;;2.83;2.08;;;;;;;;;;1733534;83;21043;-70
2022/03/05 04:14:24;;;;;;;2.85;2.22;;;;;;;;;;1733463;83;21059;-69
2022/03/05 04:16:51;;;;;;;3.98;2.35;;;;;;;;;;1733311;83;21079;-69
2022/03/05 04:19:18;;;;;;;2.08;1.72;;;;;;;;;;1733598;83;21056;-69
2022/03/05 04:21:44;;;;;;;3.80;2.20;;;;;;;;;;1733518;83;21044;-69
2022/03/05 04:24:12;;;;;;;2.25;1.72;;;;;;;;;;1733274;83;21524;-69
2022/03/05 04:26:38;;;;;;;3.42;2.05;;;;;;;;;;1733637;83;21067;-69
2022/03/05 04:29:05;;;;;;;2.62;1.90;;;;;;;;;;1733497;83;21078;-69
2022/03/05 04:31:32;;;;;;;2.55;1.90;;;;;;;;;;1733209;83;21035;-69
2022/03/05 04:34:00;;;;;;;2.65;2.10;;;;;;;;;;1733330;83;21534;-69
2022/03/05 04:36:27;;;;;;;2.40;1.90;;;;;;;;;;1733347;83;20993;-69
2022/03/05 04:38:53;;;;;;;2.55;1.80;;;;;;;;;;1733481;83;21094;-69
2022/03/05 04:41:20;;;;;;;2.10;1.82;;;;;;;;;;1733627;83;21094;-69
2022/03/05 04:43:46;;;;;;;2.62;2.00;;;;;;;;;;1733486;83;20988;-70
2022/03/05 04:46:13;;;;;;;3.00;2.02;;;;;;;;;;1733600;83;21040;-71
2022/03/05 04:48:39;;;;;;;3.67;2.00;;;;;;;;;;1733645;83;21012;-70
2022/03/05 04:51:05;;;;;;;3.08;1.82;;;;;;;;;;1733769;83;21519;-70
2022/03/05 04:53:33;;;;;;;2.00;1.67;;;;;;;;;;1733444;83;21036;-70
2022/03/05 04:55:59;;;;;;;2.17;1.95;;;;;;;;;;1733720;83;21071;-70
2022/03/05 04:58:25;;;;;;;2.12;1.80;;;;;;;;;;1733498;83;21555;-70
2022/03/05 05:00:53;;;;;;;2.33;1.60;;;;;;;;;;1733605;83;21095;-71
2022/03/05 05:03:19;;;;;;;2.05;1.62;;;;;;;;;;1733743;81;21063;-71
2022/03/05 05:05:46;;;;;;;3.90;1.92;;;;;;;;;;1740817;82;21048;-71
2022/03/05 05:08:13;;;;;;;2.12;1.70;;;;;;;;;;1742427;82;21545;-70
2022/03/05 05:10:39;;;;;;;3.87;1.85;;;;;;;;;;1742548;82;21015;-70
2022/03/05 05:13:06;;;;;;;2.22;1.90;;;;;;;;;;1742882;82;21008;-70
2022/03/05 05:15:33;;;;;;;2.25;1.55;;;;;;;;;;1742476;82;21063;-70
2022/03/05 05:18:00;;;;;;;2.27;1.90;;;;;;;;;;1742610;82;21036;-70
2022/03/05 05:20:26;;;;;;;2.80;1.82;;;;;;;;;;1742461;82;21491;-70
2022/03/05 05:22:53;;;;;;;2.35;1.70;;;;;;;;;;1742213;82;21611;-70
2022/03/05 05:25:20;;;;;;;2.30;2.00;;;;;;;;;;1742497;82;21012;-70
2022/03/05 05:27:46;;;;;;;2.72;1.90;;;;;;;;;;1742340;82;21023;-70
2022/03/05 05:30:13;;;;;;;2.08;1.80;;;;;;;;;;1742424;82;21618;-70
2022/03/05 05:32:39;;;;;;;3.60;2.22;;;;;;;;;;1742328;82;21008;-70
2022/03/05 05:35:06;;;;;;;2.30;1.60;;;;;;;;;;1742382;82;20984;-70
2022/03/05 05:37:32;;;;;;;1.92;1.65;;;;;;;;;;1742038;82;21060;-70
2022/03/05 05:39:58;;;;;;;2.52;1.67;;;;;;;;;;1742318;82;21004;-70
2022/03/05 05:42:25;;;;;;;2.42;1.70;;;;;;;;;;1742398;82;21526;-70
2022/03/05 05:44:52;;;;;;;3.83;2.30;;;;;;;;;;1741985;82;21075;-70
2022/03/05 05:47:18;;;;;;;3.52;2.00;;;;;;;;;;1742335;82;21518;-70
2022/03/05 05:49:44;;;;;;;1.95;1.80;;;;;;;;;;1742340;82;21067;-70
2022/03/05 05:52:12;;;;;;;2.92;2.10;;;;;;;;;;1742292;82;21090;-71
2022/03/05 05:54:40;;;;;;;1.92;1.80;;;;;;;;;;1742038;82;21074;-70
2022/03/05 05:57:07;;;;;;;2.50;1.70;;;;;;;;;;1742457;82;21055;-71
2022/03/05 05:59:35;;;;;;;2.25;1.90;;;;;;;;;;1742022;82;21068;-71
2022/03/05 06:02:01;;;;;;;2.85;1.80;;;;;;;;;;1742320;82;21605;-70
2022/03/05 06:04:28;;;;;;;2.17;1.70;;;;;;;;;;1740479;81;21115;-70
2022/03/05 06:06:54;;;;;;;2.65;1.77;;;;;;;;;;1733397;83;21075;-70
2022/03/05 06:09:21;;;;;;;2.42;1.80;;;;;;;;;;1733679;83;21594;-70
2022/03/05 06:11:48;;;;;;;1.82;1.60;;;;;;;;;;1733629;83;21075;-71
2022/03/05 06:14:14;;;;;;;2.67;1.80;;;;;;;;;;1733413;83;21090;-69
2022/03/05 06:16:42;;;;;;;2.00;1.80;;;;;;;;;;1733616;83;21036;-70
2022/03/05 06:19:08;;;;;;;1.70;1.60;;;;;;;;;;1733657;83;21518;-71
2022/03/05 06:21:35;;;;;;;1.65;1.50;;;;;;;;;;1733421;83;21067;-71
2022/03/05 06:24:01;;;;;;;2.58;1.87;;;;;;;;;;1733659;83;21076;-70
2022/03/05 06:26:30;;;;;;;2.17;1.57;;;;;;;;;;1733629;83;21040;-69
2022/03/05 06:28:56;;;;;;;2.08;1.60;;;;;;;;;;1733543;83;21548;-70
2022/03/05 06:31:23;;;;;;;2.90;1.60;;;;;;;;;;1733539;83;20984;-71
2022/03/05 06:33:50;;;;;;;1.77;1.57;;;;;;;;;;1733695;83;21055;-70
2022/03/05 06:36:17;;;;;;;1.90;1.40;;;;;;;;;;1733474;83;21107;-71
2022/03/05 06:38:44;;;;;;;2.72;2.10;;;;;;;;;;1733585;83;21012;-71
2022/03/05 06:41:11;;;;;;;1.75;1.60;;;;;;;;;;1733764;83;21047;-71
2022/03/05 06:43:38;;;;;;;2.45;1.85;;;;;;;;;;1733885;83;21075;-70
2022/03/05 06:46:04;;;;;;;2.77;1.70;;;;;;;;;;1733776;83;21095;-71
2022/03/05 06:48:31;;;;;;;3.12;1.75;;;;;;;;;;1733921;83;21023;-71
2022/03/05 06:50:58;;;;;;;2.85;1.87;;;;;;;;;;1733459;83;21083;-71
2022/03/05 06:53:24;;;;;;;2.20;1.60;;;;;;;;;;1733991;83;20973;-71
2022/03/05 06:55:51;;;;;;;1.70;1.60;;;;;;;;;;1733625;83;21035;-70
2022/03/05 06:58:18;;;;;;;2.58;1.62;;;;;;;;;;1733894;83;21051;-71
2022/03/05 07:00:44;;;;;;;1.67;1.57;;;;;;;;;;1733675;83;20977;-72
2022/03/05 07:03:10;;;;;;;2.05;1.57;;;;;;;;;;1733757;81;21084;-72
2022/03/05 07:05:37;;;;;;;1.60;1.50;;;;;;;;;;1734100;83;21079;-71
2022/03/05 07:08:04;;;;;;;3.67;1.70;;;;;;;;;;1734902;83;21915;-71
2022/03/05 07:10:30;;;;;;;1.65;1.50;;;;;;;;;;1734843;83;21619;-71
2022/03/05 07:12:57;;;;;;;2.02;1.60;;;;;;;;;;1734758;83;21051;-71
2022/03/05 07:15:23;;;;;;;1.72;1.57;;;;;;;;;;1734925;83;21051;-71
2022/03/05 07:17:49;;;;;;;2.00;1.60;;;;;;;;;;1734918;83;21527;-71
2022/03/05 07:20:16;;;;;;;1.65;1.55;;;;;;;;;;1734725;83;21071;-71
2022/03/05 07:22:43;;;;;;;2.58;1.37;;;;;;;;;;1734819;83;21083;-70
2022/03/05 07:25:09;;;;;;;3.17;1.50;;;;;;;;;;1734891;83;21543;-70
2022/03/05 07:27:36;;;;;;;5.25;2.25;;;;;;;;;;1734971;83;21028;-71
2022/03/05 07:30:02;;;;;;;2.27;1.87;;;;;;;;;;1735008;83;21070;-71
2022/03/05 07:32:29;;;;;;;2.40;1.55;;;;;;;;;;1735040;83;21087;-70
2022/03/05 07:34:55;;;;;;;1.70;1.60;;;;;;;;;;1734894;83;21024;-71
2022/03/05 07:37:21;;;;;;;1.75;1.50;;;;;;;;;;1735042;83;21035;-71
2022/03/05 07:39:50;;;;;;;1.80;1.52;;;;;;;;;;1734954;83;21553;-71
2022/03/05 07:42:17;;;;;;;2.33;1.62;;;;;;;;;;1734055;83;21127;-71
2022/03/05 07:44:43;;;;;;;2.25;1.57;;;;;;;;;;1734743;83;21039;-71
2022/03/05 07:47:10;;;;;;;2.85;1.80;;;;;;;;;;1734923;83;21020;-71
2022/03/05 07:49:36;;;;;;;1.98;1.62;;;;;;;;;;1734559;83;22045;-71
2022/03/05 07:52:03;;;;;;;1.87;1.70;;;;;;;;;;1735008;83;21031;-71
2022/03/05 07:54:29;;;;;;;1.52;1.40;;;;;;;;;;1734892;83;21035;-71
2022/03/05 07:56:56;;;;;;;2.10;1.40;;;;;;;;;;1734960;83;21031;-70
2022/03/05 07:59:23;;;;;;;1.87;1.67;;;;;;;;;;1734920;83;21629;-71
2022/03/05 08:01:49;;;;;;;1.70;1.60;;;;;;;;;;1734995;83;21044;-71
2022/03/05 08:04:16;;;;;;;2.52;1.70;;;;;;;;;;1734770;82;21076;-71
2022/03/05 08:06:42;;;;;;;1.40;1.30;;;;;;;;;;1733697;83;21056;-70
2022/03/05 08:09:09;;;;;;;1.82;1.60;;;;;;;;;;1733530;83;21614;-71
2022/03/05 08:11:37;;;;;;;1.75;1.60;;;;;;;;;;1733417;83;21566;-70
2022/03/05 08:14:03;;;;;;;1.82;1.67;;;;;;;;;;1733876;83;21091;-71
2022/03/05 08:16:31;;;;;;;2.40;1.80;;;;;;;;;;1733859;83;21060;-70
2022/03/05 08:18:59;;;;;;;2.27;1.52;;;;;;;;;;1733603;83;21111;-70
2022/03/05 08:21:29;;;;;;;1.90;1.60;;;;;;;;;;1733647;83;21059;-71
2022/03/05 08:23:55;;;;;;;3.20;1.70;;;;;;;;;;1733797;83;21023;-70
2022/03/05 08:26:22;;;;;;;4.12;1.67;;;;;;;;;;1733378;83;21080;-70
2022/03/05 08:28:49;;;;;;;1.52;1.42;;;;;;;;;;1733764;83;21055;-71
2022/03/05 08:31:15;;;;;;;1.70;1.60;;;;;;;;;;1733694;83;21012;-71
2022/03/05 08:33:42;;;;;;;1.82;1.72;;;;;;;;;;1733446;83;21111;-69
2022/03/05 08:36:08;;;;;;;2.22;1.57;;;;;;;;;;1733718;83;21016;-71
2022/03/05 08:41:19;;;;;;;2.10;1.60;;;;;;;;;;1701437;84;21062;-68
2022/03/05 08:44:32;;;;;;;1.65;1.55;;;;;;;;;;1801869;79;23435;-69
2022/03/05 08:46:59;;;;;;;1.65;1.55;;;;;;;;;;1761803;81;21033;-69
2022/03/05 08:49:26;;;;;;;2.98;1.98;;;;;;;;;;1761832;81;21028;-69
2022/03/05 08:51:52;;;;;;;2.87;1.90;;;;;;;;;;1761855;81;21559;-69
2022/03/05 08:54:20;;;;;;;3.22;1.80;;;;;;;;;;1761800;81;20992;-70
2022/03/05 08:56:47;;;;;;;2.70;1.90;;;;;;;;;;1761645;81;21097;-70
2022/03/05 08:59:14;;;;;;;2.10;1.85;;;;;;;;;;1761994;81;20969;-70
2022/03/05 09:01:40;;;;;;;2.72;1.67;;;;;;;;;;1761880;81;21048;-70
2022/03/05 09:04:06;;;;;;;2.25;1.70;;;;;;;;;;1761664;81;21064;-71
2022/03/05 09:06:33;;;;;;;1.87;1.55;;;;;;;;;;1761942;81;21020;-71
2022/03/05 09:09:03;;;;;;;2.20;1.77;;;;;;;;;;1761681;81;21041;-69
2022/03/05 09:11:29;;;;;;;3.12;1.50;;;;;;;;;;1761922;81;21529;-71
2022/03/05 09:13:56;;;;;;;2.00;1.80;;;;;;;;;;1761936;81;21044;-69
2022/03/05 09:16:22;;;;;;;1.92;1.57;;;;;;;;;;1761759;81;21016;-69
2022/03/05 09:18:49;;;;;;;4.35;2.12;;;;;;;;;;1761587;81;21068;-69
2022/03/05 09:21:17;;;;;;;2.22;1.80;;;;;;;;;;1761892;81;21084;-72
2022/03/05 09:23:47;;;;;;;3.15;1.70;;;;;;;;;;1761422;81;21486;-70
2022/03/05 09:26:14;;;;;;;2.35;1.92;;;;;;;;;;1761688;81;21040;-70
2022/03/05 09:28:41;;;;;;;2.35;1.75;;;;;;;;;;1761632;81;21638;-70
2022/03/05 09:31:07;;;;;;;1.42;1.30;;;;;;;;;;1761676;81;21016;-70
2022/03/05 09:33:34;;;;;;;2.42;1.55;;;;;;;;;;1761621;81;21064;-70
2022/03/05 09:36:00;;;;;;;2.12;1.52;;;;;;;;;;1761686;81;21016;-70
2022/03/05 09:38:26;;;;;;;1.65;1.40;;;;;;;;;;1734506;81;21031;-70
2022/03/05 09:40:53;;;;;;;2.45;1.80;;;;;;;;;;1727962;83;21098;-70
2022/03/05 09:43:19;;;;;;;2.35;1.35;;;;;;;;;;1724958;82;21099;-70
2022/03/05 09:45:47;;;;;;;2.05;1.80;;;;;;;;;;1720385;83;21550;-70
2022/03/05 09:48:17;;;;;;;1.72;1.55;;;;;;;;;;1720262;83;21069;-68
2022/03/05 09:50:44;;;;;;;3.60;1.60;;;;;;;;;;1720156;83;21036;-68
2022/03/05 09:53:12;;;;;;;1.95;1.47;;;;;;;;;;1720311;83;21056;-69
2022/03/05 09:55:40;;;;;;;1.52;1.42;;;;;;;;;;1719786;83;21067;-69
2022/03/05 09:58:06;;;;;;;2.02;1.57;;;;;;;;;;1720149;83;21063;-69
2022/03/05 10:00:33;;;;;;;3.15;1.80;;;;;;;;;;1719568;83;21036;-69
2022/03/05 10:03:00;;;;;;;1.95;1.45;;;;;;;;;;1720011;83;21064;-69
2022/03/05 10:05:27;;;;;;;2.00;1.52;;;;;;;;;;1691441;83;21590;-69
2022/03/05 10:08:10;;;;;;;2.33;1.95;;;;;;;;;;1720053;83;21004;-70
2022/03/05 10:10:49;;;;;;;3.40;1.60;;;;;;;;;;1719800;83;21052;-69
2022/03/05 10:13:24;;;;;;;2.00;1.50;;;;;;;;;;1719487;83;21136;-69
2022/03/05 10:15:53;;;;;;;1.92;1.55;;;;;;;;;;1719921;83;21044;-70
2022/03/05 10:18:25;;;;;;;1.95;1.55;;;;;;;;;;1719825;83;21535;-69
2022/03/05 10:20:52;;;;;;;2.20;1.80;;;;;;;;;;1718480;83;21024;-69
2022/03/05 10:23:19;;;;;;;1.77;1.50;;;;;;;;;;1720086;83;21084;-70
2022/03/05 10:25:47;;;;;;;1.85;1.65;;;;;;;;;;1719997;83;21064;-70
2022/03/05 10:34:11;;;;;;;2.50;1.98;;;;;;;;;;1745065;76;21218;-73
2022/03/05 10:36:38;;;;;;;2.12;1.62;;;;;;;;;;1702523;84;21065;-72
2022/03/05 10:39:04;;;;;;;2.02;1.40;;;;;;;;;;1713498;84;21049;-73
2022/03/05 10:41:38;;;;;;;1.85;1.45;;;;;;;;;;1713476;84;20990;-74
2022/03/05 10:44:15;;;;;;;1.75;1.62;;;;;;;;;;1713532;84;21117;-73
2022/03/05 10:46:47;;;;;;;2.67;1.77;;;;;;;;;;1713377;84;21122;-73
2022/03/05 10:49:16;;;;;;;1.62;1.52;;;;;;;;;;1713490;84;21124;-73
2022/03/05 10:51:48;;;;;;;2.65;1.80;;;;;;;;;;1711257;84;21053;-73
2022/03/05 10:54:29;;;;;;;2.10;1.90;;;;;;;;;;1712904;84;21050;-74
2022/03/05 10:56:58;;;;;;;2.72;1.80;;;;;;;;;;1713180;84;21065;-73
2022/03/05 10:59:24;;;;;;;3.15;1.65;;;;;;;;;;1706932;84;21049;-73
2022/03/05 11:01:53;;;;;;;2.20;1.70;;;;;;;;;;1713349;84;21053;-73
2022/03/05 11:04:23;;;;;;;1.60;1.45;;;;;;;;;;1713236;84;21026;-72
2022/03/05 11:06:50;;;;;;;3.08;1.80;;;;;;;;;;1713137;84;21093;-73
2022/03/05 11:09:17;;;;;;;3.05;2.20;;;;;;;;;;1713330;84;21080;-74
2022/03/05 11:11:45;;;;;;;3.00;2.00;;;;;;;;;;1713146;84;21553;-73
2022/03/05 11:14:15;;;;;;;3.75;2.40;;;;;;;;;;1668253;84;21164;-73
2022/03/05 11:16:44;;;;;;;3.67;2.30;;;;;;;;;;1713257;84;21045;-74
2022/03/05 11:19:12;;;;;;;3.45;2.25;;;;;;;;;;1713116;84;21587;-74
2022/03/05 11:21:41;;;;;;;2.83;2.12;;;;;;;;;;1713295;84;21077;-73
2022/03/05 11:24:18;;;;;;;3.02;2.20;;;;;;;;;;1713347;84;21058;-73
2022/03/05 11:26:48;;;;;;;4.70;2.08;;;;;;;;;;1713353;84;21065;-73
2022/03/05 11:29:19;;;;;;;3.83;2.02;;;;;;;;;;1712445;84;21057;-73
2022/03/05 11:31:47;;;;;;;3.20;1.82;;;;;;;;;;1713223;84;21045;-74
2022/03/05 11:34:19;;;;;;;3.98;2.10;;;;;;;;;;1722143;82;21081;-73
2022/03/05 11:36:47;;;;;;;2.80;1.82;;;;;;;;;;1728470;83;21083;-73
2022/03/05 11:39:21;;;;;;;3.02;1.90;;;;;;;;;;1728428;82;21055;-72
2022/03/05 11:41:53;;;;;;;2.65;1.80;;;;;;;;;;1728569;83;21031;-73
2022/03/05 11:44:23;;;;;;;2.95;2.08;;;;;;;;;;1728259;83;21043;-73
2022/03/05 11:46:50;;;;;;;3.02;1.82;;;;;;;;;;1728205;83;21043;-72
2022/03/05 11:49:17;;;;;;;2.70;2.00;;;;;;;;;;1728140;83;21078;-73
2022/03/05 11:51:53;;;;;;;3.70;2.30;;;;;;;;;;1727867;83;21083;-71
2022/03/05 11:54:21;;;;;;;3.12;2.15;;;;;;;;;;1728303;83;21584;-73
2022/03/05 11:57:03;;;;;;;3.02;1.85;;;;;;;;;;1727981;83;21115;-73
2022/03/05 11:59:34;;;;;;;4.28;2.15;;;;;;;;;;1728219;83;21071;-73
2022/03/05 12:02:01;;;;;;;3.98;2.10;;;;;;;;;;1728267;83;21523;-73
2022/03/05 12:04:29;;;;;;;4.03;1.90;;;;;;;;;;1728202;83;21079;-73
2022/03/05 12:07:07;;;;;;;4.12;2.05;;;;;;;;;;1727979;83;21040;-73
2022/03/05 12:09:37;;;;;;;2.60;1.92;;;;;;;;;;1727845;83;21105;-73
2022/03/05 12:12:06;;;;;;;3.65;1.87;;;;;;;;;;1728194;83;21589;-73
2022/03/05 12:14:51;;;;;;;3.17;1.90;;;;;;;;;;1727544;83;21657;-74
2022/03/05 12:17:20;;;;;;;3.42;2.30;;;;;;;;;;1728043;83;21090;-72
2022/03/05 12:19:49;;;;;;;3.47;2.22;;;;;;;;;;1728160;83;21562;-72
2022/03/05 12:22:17;;;;;;;3.10;1.90;;;;;;;;;;1727974;83;21087;-72
2022/03/05 12:24:46;;;;;;;3.20;1.90;;;;;;;;;;1728127;83;21586;-73
2022/03/05 12:27:15;;;;;;;6.50;2.42;;;;;;;;;;1728009;83;21075;-73
2022/03/05 12:29:44;;;;;;;2.55;1.87;;;;;;;;;;1728171;83;21059;-72
2022/03/05 12:32:13;;;;;;;6.75;2.42;;;;;;;;;;1727927;83;21032;-73
2022/03/05 12:34:40;;;;;;;3.35;2.20;;;;;;;;;;1734878;82;21113;-72
2022/03/05 12:37:12;;;;;;;4.67;2.10;;;;;;;;;;1749820;82;21568;-72
2022/03/05 12:39:42;;;;;;;4.08;2.27;;;;;;;;;;1748331;82;21047;-72
2022/03/05 12:42:10;;;;;;;5.03;2.40;;;;;;;;;;1749922;82;21090;-72
2022/03/05 12:44:39;;;;;;;3.67;2.20;;;;;;;;;;1749788;82;21078;-72
2022/03/05 12:47:05;;;;;;;4.12;2.37;;;;;;;;;;1749748;82;21082;-72
2022/03/05 12:49:31;;;;;;;4.28;2.40;;;;;;;;;;1749780;82;21027;-71
2022/03/05 12:51:57;;;;;;;2.83;1.95;;;;;;;;;;1749472;82;21078;-73
2022/03/05 12:54:24;;;;;;;2.52;1.82;;;;;;;;;;1749537;82;21097;-72
2022/03/05 12:56:56;;;;;;;3.15;2.10;;;;;;;;;;1749616;82;21027;-72
2022/03/05 12:59:23;;;;;;;4.08;2.30;;;;;;;;;;1750106;82;21656;-72
2022/03/05 13:01:51;;;;;;;6.62;2.02;;;;;;;;;;1722321;82;21043;-72
2022/03/05 13:04:17;;;;;;;2.45;1.95;;;;;;;;;;1749623;82;21031;-72
2022/03/05 13:06:47;;;;;;;4.10;2.37;;;;;;;;;;1749839;82;21085;-71
2022/03/05 13:09:16;;;;;;;4.58;2.85;;;;;;;;;;1749484;82;21062;-71
2022/03/05 13:11:42;;;;;;;4.53;2.65;;;;;;;;;;1749865;82;21545;-72
2022/03/05 13:14:09;;;;;;;6.67;2.72;;;;;;;;;;1722147;82;21598;-72
2022/03/05 13:16:39;;;;;;;3.60;2.15;;;;;;;;;;1749664;82;21513;-73
2022/03/05 13:19:05;;;;;;;2.72;1.90;;;;;;;;;;1749051;80;21090;-72
2022/03/05 13:21:32;;;;;;;3.77;2.40;;;;;;;;;;1749537;82;21530;-72
2022/03/05 13:24:00;;;;;;;4.83;3.02;;;;;;;;;;1721976;82;21023;-72
2022/03/05 13:26:26;;;;;;;5.37;3.35;;;;;;;;;;1749283;82;21010;-72
2022/03/05 13:28:53;;;;;;;3.92;2.72;;;;;;;;;;1749533;82;21074;-71
2022/03/05 13:31:19;;;;;;;5.33;3.25;;;;;;;;;;1749559;82;21011;-72
2022/03/05 13:33:47;;;;;;;5.37;2.72;;;;;;;;;;1722213;82;21066;-71
2022/03/05 13:36:23;;;;;;;4.37;2.33;;;;;;;;;;1731223;82;21079;-72
2022/03/05 13:38:50;;;;;;;3.87;2.10;;;;;;;;;;1728170;83;21008;-72
2022/03/05 13:41:21;;;;;;;3.33;2.22;;;;;;;;;;1727836;83;21020;-72
2022/03/05 13:43:47;;;;;;;2.85;1.98;;;;;;;;;;1728188;83;21071;-72
2022/03/05 13:46:14;;;;;;;3.10;2.10;;;;;;;;;;1728221;83;21039;-71
2022/03/05 13:48:50;;;;;;;3.50;2.42;;;;;;;;;;1707442;83;21107;-72
2022/03/05 13:51:23;;;;;;;3.42;1.80;;;;;;;;;;1728301;83;21028;-71
2022/03/05 13:53:51;;;;;;;3.20;1.90;;;;;;;;;;1728616;83;21048;-72
2022/03/05 13:56:17;;;;;;;3.02;2.10;;;;;;;;;;1725092;83;20993;-73
2022/03/05 13:58:43;;;;;;;2.58;1.85;;;;;;;;;;1728241;83;21063;-72
2022/03/05 14:01:18;;;;;;;2.17;1.70;;;;;;;;;;1727829;83;21090;-72
2022/03/05 14:03:43;;;;;;;;;;;;;;;;;;1709987;83;21024;-72
2022/03/05 14:06:10;;;;;;;4.65;2.70;;;;;;;;;;1728051;83;20159;-72
2022/03/05 14:08:49;;;;;;;4.80;2.83;;;;;;;;;;1727880;83;21044;-72
2022/03/05 14:11:16;;;;;;;3.45;2.55;;;;;;;;;;1728120;83;21040;-72
2022/03/05 14:13:46;;;;;;;4.35;2.75;;;;;;;;;;1728282;83;21640;-72
2022/03/05 14:16:14;;;;;;;4.47;2.58;;;;;;;;;;1728000;83;21052;-72
2022/03/05 14:18:44;;;;;;;4.75;2.85;;;;;;;;;;1725117;83;21059;-72
2022/03/05 14:21:17;;;;;;;3.40;2.35;;;;;;;;;;1727937;83;21581;-72
2022/03/05 14:23:43;;;;;;;4.47;2.80;;;;;;;;;;1728055;83;21043;-72
2022/03/05 14:26:10;;;;;;;5.80;2.70;;;;;;;;;;1728018;83;21023;-72
2022/03/05 14:28:36;;;;;;;4.58;2.40;;;;;;;;;;1728119;83;21118;-72
2022/03/05 14:31:02;;;;;;;3.75;2.52;;;;;;;;;;1728028;83;21067;-74
2022/03/05 14:33:29;;;;;;;4.47;2.25;;;;;;;;;;1728050;83;21072;-73
2022/03/05 14:35:56;;;;;;;4.33;2.50;;;;;;;;;;1723613;83;21145;-73
2022/03/05 14:38:23;;;;;;;3.30;2.05;;;;;;;;;;1721189;83;21564;-72
2022/03/05 14:40:49;;;;;;;3.58;2.12;;;;;;;;;;1721095;83;21025;-72
2022/03/05 14:43:16;;;;;;;3.70;1.87;;;;;;;;;;1721271;83;21072;-71
2022/03/05 14:45:42;;;;;;;5.53;2.62;;;;;;;;;;1721113;83;21410;-72
2022/03/05 14:48:09;;;;;;;3.50;2.22;;;;;;;;;;1721139;83;21551;-72
2022/03/05 14:50:35;;;;;;;2.75;2.10;;;;;;;;;;1720839;83;21084;-72
2022/03/05 14:53:02;;;;;;;3.08;1.98;;;;;;;;;;1721120;83;21014;-72
2022/03/05 14:55:28;;;;;;;2.67;1.95;;;;;;;;;;1721021;83;21055;-72
2022/03/05 14:57:55;;;;;;;4.45;2.47;;;;;;;;;;1721267;83;21053;-73
2022/03/05 15:00:25;;;;;;;4.00;2.02;;;;;;;;;;1721398;83;21005;-73